Time;durP1;ratioP1;P1;durP2;ratioP2;P2;SDS_P1;SDS_P2;PMS_P1;PMS_P2;Temp;Humidity;BMP_temperature;BMP_pressure;BME280_temperature;BME280_humidity;BME280_pressure;Samples;Min_cycle;Max_cycle;Signal;HPM_P1;HPM_P2
2022/12/01 00:00:45;;;;;;;68.47;36.10;;;7.30;80.20;;;;;;4991058;28;20046;-66
2022/12/01 00:03:11;;;;;;;65.90;33.45;;;7.30;80.30;;;;;;4990853;28;20069;-66
2022/12/01 00:05:37;;;;;;;64.07;35.78;;;7.30;80.20;;;;;;4988161;28;20120;-67
2022/12/01 00:08:06;;;;;;;64.97;33.72;;;7.20;80.20;;;;;;4992391;28;20401;-67
2022/12/01 00:10:32;;;;;;;66.85;36.60;;;7.20;80.20;;;;;;4991210;28;20046;-67
2022/12/01 00:13:01;;;;;;;59.90;32.88;;;7.20;80.30;;;;;;4974464;28;20039;-67
2022/12/01 00:15:36;;;;;;;63.72;32.78;;;7.20;80.30;;;;;;4989010;28;20038;-67
2022/12/01 00:18:05;;;;;;;64.25;34.65;;;7.20;80.30;;;;;;4994842;28;20489;-67
2022/12/01 00:20:34;;;;;;;57.92;31.42;;;7.20;80.40;;;;;;5008802;28;20046;-67
2022/12/01 00:23:00;;;;;;;61.35;32.97;;;7.20;80.50;;;;;;4977759;28;20046;-67
2022/12/01 00:25:26;;;;;;;63.80;34.63;;;7.20;80.50;;;;;;4996630;28;20117;-67
2022/12/01 00:27:52;;;;;;;62.63;32.80;;;7.20;80.50;;;;;;5011518;28;20505;-67
2022/12/01 00:30:19;;;;;;;63.92;33.97;;;7.20;80.40;;;;;;4993602;28;20033;-68
2022/12/01 00:32:46;;;;;;;66.78;34.03;;;7.20;80.50;;;;;;4994043;28;20037;-67
2022/12/01 00:35:12;;;;;;;60.10;32.20;;;7.20;80.50;;;;;;4993774;28;20041;-69
2022/12/01 00:37:38;;;;;;;61.95;32.72;;;7.20;80.60;;;;;;4993897;28;20518;-67
2022/12/01 00:40:05;;;;;;;63.47;33.17;;;7.20;80.60;;;;;;5011645;28;20125;-67
2022/12/01 00:42:31;;;;;;;64.78;34.08;;;7.20;80.60;;;;;;4985202;28;20034;-67
2022/12/01 00:44:57;;;;;;;69.95;35.15;;;7.10;80.60;;;;;;4994095;28;20041;-67
2022/12/01 00:47:23;;;;;;;67.45;33.85;;;7.20;80.70;;;;;;5014447;28;20083;-67
2022/12/01 00:49:48;;;;;;;64.82;34.90;;;7.20;80.70;;;;;;4998067;28;20129;-67
2022/12/01 00:52:16;;;;;;;67.15;35.80;;;7.20;80.80;;;;;;4997154;28;20183;-67
2022/12/01 00:54:42;;;;;;;67.97;37.83;;;7.20;80.80;;;;;;4997301;28;20048;-67
2022/12/01 00:57:08;;;;;;;63.80;33.53;;;7.20;80.80;;;;;;5014706;28;20160;-67
2022/12/01 00:59:34;;;;;;;59.33;33.25;;;7.20;80.60;;;;;;4999129;28;20099;-67
2022/12/01 01:02:01;;;;;;;53.17;30.30;;;7.20;80.70;;;;;;4997319;28;20060;-67
2022/12/01 01:04:31;;;;;;;62.38;32.25;;;7.20;80.70;;;;;;4981831;28;20038;-67
2022/12/01 01:06:56;;;;;;;51.45;29.83;;;7.20;80.80;;;;;;4978604;28;20038;-67
2022/12/01 01:09:22;;;;;;;60.58;32.47;;;7.20;80.80;;;;;;4997280;28;20482;-67
2022/12/01 01:11:48;;;;;;;58.60;31.02;;;7.30;80.90;;;;;;4997084;28;20038;-67
2022/12/01 01:14:14;;;;;;;57.28;32.20;;;7.20;80.90;;;;;;4998089;28;20042;-67
2022/12/01 01:16:39;;;;;;;61.47;32.95;;;7.20;80.90;;;;;;4993696;28;20050;-67
2022/12/01 01:19:05;;;;;;;61.88;33.13;;;7.20;81.00;;;;;;4974760;28;20058;-67
2022/12/01 01:21:31;;;;;;;54.08;30.60;;;7.30;81.00;;;;;;4993796;28;20101;-67
2022/12/01 01:23:57;;;;;;;55.00;29.23;;;7.30;81.00;;;;;;4978672;28;20033;-67
2022/12/01 01:26:30;;;;;;;67.55;35.42;;;7.30;81.40;;;;;;4993352;28;20042;-67
2022/12/01 01:29:00;;;;;;;59.10;31.63;;;7.30;81.00;;;;;;4994280;28;20129;-68
2022/12/01 01:31:28;;;;;;;55.05;30.63;;;7.30;80.90;;;;;;4994581;28;20034;-67
2022/12/01 01:33:57;;;;;;;58.92;30.20;;;7.30;80.90;;;;;;4993303;28;20494;-67
2022/12/01 01:36:23;;;;;;;56.97;31.67;;;7.30;80.90;;;;;;4992456;28;20501;-67
2022/12/01 01:38:53;;;;;;;55.42;29.50;;;7.30;80.80;;;;;;4993366;28;20038;-67
2022/12/01 01:41:21;;;;;;;57.13;31.23;;;7.30;80.80;;;;;;4994625;28;20069;-67
2022/12/01 01:43:48;;;;;;;58.30;32.13;;;7.30;80.80;;;;;;4994617;28;20040;-67
2022/12/01 01:46:19;;;;;;;53.80;29.80;;;7.30;80.80;;;;;;4992945;28;20046;-65
2022/12/01 01:48:50;;;;;;;61.13;32.03;;;7.30;80.80;;;;;;4993066;28;20125;-65
2022/12/01 01:51:21;;;;;;;52.10;28.48;;;7.30;80.80;;;;;;4993160;28;20532;-65
2022/12/01 01:53:48;;;;;;;62.45;35.20;;;7.30;80.80;;;;;;4993597;28;20062;-66
2022/12/01 01:56:14;;;;;;;58.72;31.42;;;7.30;80.80;;;;;;4993002;28;20046;-65
2022/12/01 01:58:41;;;;;;;59.83;32.75;;;7.40;80.80;;;;;;4991620;28;20500;-66
2022/12/01 02:01:06;;;;;;;56.63;29.23;;;7.40;80.90;;;;;;4993888;28;20501;-65
2022/12/01 02:03:34;;;;;;;53.95;30.88;;;7.30;80.80;;;;;;4992445;28;20042;-66
2022/12/01 02:06:00;;;;;;;61.08;33.13;;;7.30;80.80;;;;;;4993910;28;20165;-65
2022/12/01 02:08:26;;;;;;;59.33;30.92;;;7.40;80.90;;;;;;4993787;28;20117;-66
2022/12/01 02:11:11;;;;;;;56.55;30.80;;;7.40;80.80;;;;;;4975905;28;20039;-65
2022/12/01 02:14:07;;;;;;;52.10;29.10;;;7.40;80.80;;;;;;4992251;28;20117;-65
2022/12/01 02:16:52;;;;;;;50.38;29.35;;;7.30;80.60;;;;;;4992787;28;20058;-65
2022/12/01 02:19:48;;;;;;;60.55;31.08;;;7.40;80.80;;;;;;4993492;28;20051;-65
2022/12/01 02:22:45;;;;;;;56.72;31.98;;;7.40;80.70;;;;;;4992492;28;20054;-66
2022/12/01 02:25:11;;;;;;;59.25;33.70;;;7.40;80.70;;;;;;4991925;28;20046;-65
2022/12/01 02:27:51;;;;;;;66.20;34.42;;;7.30;80.60;;;;;;4992024;28;20053;-66
2022/12/01 02:30:30;;;;;;;54.25;30.70;;;7.30;80.50;;;;;;4992331;28;20046;-65
2022/12/01 02:33:07;;;;;;;62.15;32.88;;;7.40;80.60;;;;;;4994172;28;20450;-66
2022/12/01 02:35:40;;;;;;;54.70;29.75;;;7.40;80.70;;;;;;4993210;28;20092;-66
2022/12/01 02:38:12;;;;;;;61.05;33.35;;;7.30;81.00;;;;;;5009159;28;20069;-66
2022/12/01 02:40:59;;;;;;;54.67;29.92;;;7.30;80.60;;;;;;4991987;28;20092;-66
2022/12/01 02:43:36;;;;;;;56.92;30.77;;;7.30;80.50;;;;;;4991483;28;20038;-66
2022/12/01 02:46:13;;;;;;;59.13;32.30;;;7.30;80.60;;;;;;4992300;28;20084;-66
2022/12/01 02:48:42;;;;;;;62.42;32.22;;;7.30;80.50;;;;;;4991800;28;20046;-66
2022/12/01 02:51:16;;;;;;;62.17;33.80;;;7.40;80.50;;;;;;4992410;28;20162;-66
2022/12/01 02:53:43;;;;;;;54.47;32.05;;;7.40;80.40;;;;;;4992267;28;20073;-66
2022/12/01 02:56:14;;;;;;;56.63;30.95;;;7.30;80.30;;;;;;4992153;28;20046;-66
2022/12/01 02:58:42;;;;;;;61.58;34.00;;;7.30;80.40;;;;;;4989970;28;20050;-66
2022/12/01 03:01:23;;;;;;;72.03;36.85;;;7.30;80.30;;;;;;4991854;28;20046;-66
2022/12/01 03:04:20;;;;;;;54.78;29.50;;;7.30;80.30;;;;;;4992249;28;20053;-67
2022/12/01 03:07:14;;;;;;;58.55;30.80;;;7.30;80.30;;;;;;4993095;28;20445;-66
2022/12/01 03:10:19;;;;;;;61.03;32.25;;;7.30;80.40;;;;;;4990645;28;20046;-66
2022/12/01 03:12:57;;;;;;;60.50;32.75;;;7.30;80.40;;;;;;4970953;28;20088;-66
2022/12/01 03:15:40;;;;;;;57.33;30.58;;;7.30;80.30;;;;;;4990797;28;20073;-66
2022/12/01 03:18:08;;;;;;;61.42;32.97;;;7.30;80.30;;;;;;4994598;28;20628;-66
2022/12/01 03:20:40;;;;;;;61.00;33.30;;;7.20;80.30;;;;;;5011950;28;20281;-66
2022/12/01 03:23:15;;;;;;;52.65;29.55;;;7.30;80.40;;;;;;4994365;28;20112;-66
2022/12/01 03:25:45;;;;;;;63.92;34.53;;;7.30;80.40;;;;;;4994551;28;20103;-66
2022/12/01 03:28:14;;;;;;;60.17;32.58;;;7.20;80.30;;;;;;4995123;28;20053;-66
2022/12/01 03:30:42;;;;;;;64.55;34.83;;;7.30;80.30;;;;;;4994552;28;20131;-66
2022/12/01 03:33:13;;;;;;;65.95;34.40;;;7.20;80.20;;;;;;4991909;28;20030;-65
2022/12/01 03:35:46;;;;;;;62.25;35.50;;;7.20;80.00;;;;;;4995358;28;20072;-65
2022/12/01 03:38:16;;;;;;;54.60;30.70;;;7.20;80.00;;;;;;4995293;28;20084;-65
2022/12/01 03:40:46;;;;;;;62.00;32.60;;;7.20;80.00;;;;;;4994999;28;20037;-65
2022/12/01 03:43:17;;;;;;;55.33;29.40;;;7.20;80.00;;;;;;5012090;28;20065;-65
2022/12/01 03:46:09;;;;;;;48.45;28.90;;;7.10;80.10;;;;;;5010412;28;20046;-65
2022/12/01 03:48:36;;;;;;;52.70;30.00;;;7.10;80.20;;;;;;4994275;28;20508;-66
2022/12/01 03:51:05;;;;;;;52.40;29.05;;;7.10;80.40;;;;;;4995427;28;20413;-65
2022/12/01 03:53:48;;;;;;;56.72;30.67;;;7.10;80.50;;;;;;4994430;28;20117;-65
2022/12/01 03:56:19;;;;;;;56.83;29.95;;;7.10;80.60;;;;;;4994503;28;20045;-66
2022/12/01 03:58:47;;;;;;;51.42;28.05;;;7.20;80.70;;;;;;4994439;28;20137;-67
2022/12/01 04:01:13;;;;;;;54.85;29.25;;;7.20;80.70;;;;;;4977734;28;20516;-65
2022/12/01 04:03:39;;;;;;;56.15;30.90;;;7.20;80.70;;;;;;4993955;28;20049;-65
2022/12/01 04:06:05;;;;;;;59.22;31.95;;;7.20;80.70;;;;;;4996293;28;20049;-66
2022/12/01 04:08:32;;;;;;;55.63;30.08;;;7.20;80.70;;;;;;4995059;28;20495;-65
2022/12/01 04:10:58;;;;;;;49.38;28.25;;;7.20;80.70;;;;;;5010266;28;20080;-66
2022/12/01 04:13:25;;;;;;;54.20;29.33;;;7.20;80.70;;;;;;5011744;28;20497;-65
2022/12/01 04:15:54;;;;;;;58.47;30.42;;;7.20;80.70;;;;;;4995704;28;20046;-66
2022/12/01 04:18:20;;;;;;;59.40;32.92;;;7.20;80.70;;;;;;4999175;28;20050;-66
2022/12/01 04:20:47;;;;;;;48.88;28.88;;;7.20;80.60;;;;;;4995497;28;20105;-66
2022/12/01 04:25:59;;;;;;;57.25;29.88;;;7.20;80.40;;;;;;4997894;28;20100;-66
2022/12/01 04:28:25;;;;;;;47.58;26.83;;;7.20;80.30;;;;;;4997766;28;20096;-66
2022/12/01 04:30:50;;;;;;;48.47;27.75;;;7.20;80.30;;;;;;4997825;28;20124;-66
2022/12/01 04:33:16;;;;;;;54.92;29.35;;;7.10;80.20;;;;;;4981675;28;20533;-66
2022/12/01 04:35:42;;;;;;;49.17;26.65;;;7.20;80.30;;;;;;5015283;28;20038;-66
2022/12/01 04:38:07;;;;;;;53.60;29.77;;;7.10;80.30;;;;;;4997834;28;20049;-66
2022/12/01 04:40:33;;;;;;;51.97;28.30;;;7.20;80.40;;;;;;4997615;28;20080;-66
2022/12/01 04:42:59;;;;;;;53.90;29.17;;;7.20;80.40;;;;;;4998364;28;20030;-66
2022/12/01 04:45:24;;;;;;;51.60;28.75;;;7.10;80.40;;;;;;4997438;28;20046;-66
2022/12/01 04:47:53;;;;;;;50.53;28.15;;;7.20;80.40;;;;;;4998801;28;20048;-66
2022/12/01 04:50:19;;;;;;;50.08;28.35;;;7.10;80.40;;;;;;4997437;28;20042;-66
2022/12/01 04:52:45;;;;;;;49.72;28.50;;;7.10;80.30;;;;;;4997488;28;20042;-66
2022/12/01 04:55:13;;;;;;;54.35;28.88;;;7.10;80.30;;;;;;4998062;28;20070;-66
2022/12/01 04:57:40;;;;;;;52.53;29.63;;;7.10;80.30;;;;;;4981025;28;20497;-66
2022/12/01 05:00:11;;;;;;;50.38;29.25;;;7.10;80.30;;;;;;4995351;28;20124;-66
2022/12/01 05:02:38;;;;;;;51.28;28.27;;;7.10;80.30;;;;;;4999183;28;20125;-66
2022/12/01 05:05:05;;;;;;;50.17;28.58;;;7.10;80.20;;;;;;4980794;28;20053;-66
2022/12/01 05:07:31;;;;;;;49.47;27.65;;;7.10;80.20;;;;;;4995647;28;20096;-66
2022/12/01 05:09:57;;;;;;;50.10;28.20;;;7.10;80.20;;;;;;4980614;28;20041;-66
2022/12/01 05:12:23;;;;;;;49.40;29.30;;;7.10;80.20;;;;;;4997182;28;20038;-66
2022/12/01 05:14:49;;;;;;;53.95;29.90;;;7.10;80.20;;;;;;4997192;28;20064;-66
2022/12/01 05:17:14;;;;;;;52.60;28.77;;;7.10;80.30;;;;;;4998311;28;20057;-66
2022/12/01 05:22:24;;;;;;;50.63;27.42;;;7.10;80.30;;;;;;4997148;28;20077;-66
2022/12/01 05:24:50;;;;;;;51.08;28.15;;;7.10;80.40;;;;;;4997958;28;20448;-66
2022/12/01 05:27:16;;;;;;;55.45;30.80;;;7.10;80.40;;;;;;4996902;28;20030;-66
2022/12/01 05:29:42;;;;;;;48.25;28.55;;;7.10;80.40;;;;;;4999047;28;20100;-66
2022/12/01 05:32:08;;;;;;;52.35;29.70;;;7.10;80.40;;;;;;5013933;28;20120;-66
2022/12/01 05:34:33;;;;;;;49.13;26.80;;;7.10;80.40;;;;;;4981246;28;20057;-66
2022/12/01 05:36:59;;;;;;;51.50;27.55;;;7.10;80.50;;;;;;4996481;28;20405;-66
2022/12/01 05:39:25;;;;;;;50.92;29.77;;;7.10;80.50;;;;;;4996665;28;20042;-66
2022/12/01 05:41:51;;;;;;;49.70;29.50;;;7.10;80.50;;;;;;5016141;28;20072;-66
2022/12/01 05:44:17;;;;;;;50.05;30.10;;;7.10;80.50;;;;;;5014318;28;20034;-66
2022/12/01 05:46:42;;;;;;;52.55;29.25;;;7.10;80.50;;;;;;4996534;28;20045;-66
2022/12/01 05:49:08;;;;;;;48.45;28.98;;;7.10;80.50;;;;;;5013922;28;20042;-66
2022/12/01 05:51:34;;;;;;;55.42;30.27;;;7.10;80.50;;;;;;4994202;28;20420;-66
2022/12/01 05:54:00;;;;;;;51.30;27.35;;;7.20;80.60;;;;;;4996716;28;20050;-66
2022/12/01 05:56:25;;;;;;;56.00;29.25;;;7.10;80.50;;;;;;4979919;28;20448;-66
2022/12/01 05:58:51;;;;;;;48.38;27.70;;;7.20;80.60;;;;;;4996127;28;20042;-66
2022/12/01 06:01:17;;;;;;;55.05;29.50;;;7.20;80.50;;;;;;5012286;28;20147;-66
2022/12/01 06:03:42;;;;;;;52.42;29.63;;;7.10;80.50;;;;;;4979814;28;20465;-66
2022/12/01 06:06:08;;;;;;;50.63;29.55;;;7.20;80.60;;;;;;4996352;28;20045;-66
2022/12/01 06:08:34;;;;;;;52.75;28.75;;;7.20;80.60;;;;;;4996126;28;20486;-66
2022/12/01 06:10:59;;;;;;;54.03;28.70;;;7.20;80.60;;;;;;5012969;28;20040;-66
2022/12/01 06:13:25;;;;;;;52.38;29.02;;;7.20;80.60;;;;;;5013820;28;20042;-66
2022/12/01 06:15:59;;;;;;;56.05;32.08;;;7.20;80.50;;;;;;4996176;28;20066;-66
2022/12/01 06:18:26;;;;;;;54.03;29.88;;;7.20;80.60;;;;;;4995740;28;20057;-66
2022/12/01 06:20:52;;;;;;;50.05;29.25;;;7.20;80.60;;;;;;4995772;28;20053;-66
2022/12/01 06:23:18;;;;;;;57.92;32.50;;;7.20;80.50;;;;;;4995691;28;20049;-66
2022/12/01 06:25:43;;;;;;;54.50;30.27;;;7.20;80.50;;;;;;4997207;28;20038;-66
2022/12/01 06:28:09;;;;;;;55.85;30.85;;;7.20;80.50;;;;;;4995759;28;20056;-66
2022/12/01 06:30:34;;;;;;;54.45;30.67;;;7.20;80.50;;;;;;5013120;28;20112;-65
2022/12/01 06:33:00;;;;;;;55.45;31.17;;;7.20;80.50;;;;;;4995134;28;20108;-66
2022/12/01 06:35:26;;;;;;;57.22;31.55;;;7.30;80.50;;;;;;4996873;28;20038;-75
2022/12/01 06:37:53;;;;;;;54.83;28.65;;;7.20;80.50;;;;;;5013090;28;20038;-74
2022/12/01 06:40:19;;;;;;;55.58;32.33;;;7.20;80.40;;;;;;4997479;28;20115;-75
2022/12/01 06:42:44;;;;;;;57.38;33.17;;;7.20;80.40;;;;;;4997319;28;20477;-76
2022/12/01 06:45:10;;;;;;;50.28;29.90;;;7.20;80.40;;;;;;4994783;28;20140;-75
2022/12/01 06:47:37;;;;;;;65.72;36.15;;;7.20;80.40;;;;;;4995094;28;20042;-73
2022/12/01 06:50:04;;;;;;;51.75;31.30;;;7.20;80.30;;;;;;5006265;28;20133;-75
2022/12/01 06:52:30;;;;;;;48.38;28.20;;;7.20;80.30;;;;;;5015576;28;20087;-75
2022/12/01 06:54:55;;;;;;;54.92;31.00;;;7.20;80.30;;;;;;5016043;28;20041;-74
2022/12/01 06:57:21;;;;;;;55.92;30.85;;;7.20;80.30;;;;;;4999906;28;20041;-74
2022/12/01 06:59:47;;;;;;;57.08;31.02;;;7.30;80.30;;;;;;5012492;28;20417;-74
2022/12/01 07:02:12;;;;;;;54.85;30.33;;;7.20;80.20;;;;;;5013539;28;20034;-74
2022/12/01 07:04:38;;;;;;;52.53;29.30;;;7.20;80.20;;;;;;5031237;28;20037;-66
2022/12/01 07:07:07;;;;;;;50.83;30.70;;;7.20;80.10;;;;;;4986607;28;20037;-65
2022/12/01 07:09:33;;;;;;;55.95;29.80;;;7.20;80.00;;;;;;4995822;28;20049;-65
2022/12/01 07:11:59;;;;;;;53.42;31.23;;;7.10;79.80;;;;;;4979865;28;20034;-66
2022/12/01 07:14:26;;;;;;;55.75;31.33;;;7.20;79.80;;;;;;4995659;28;20496;-66
2022/12/01 07:16:52;;;;;;;52.67;28.83;;;7.10;79.70;;;;;;5004077;28;20045;-66
2022/12/01 07:19:18;;;;;;;51.00;29.23;;;7.10;79.60;;;;;;5009547;28;20054;-66
2022/12/01 07:21:43;;;;;;;50.47;29.80;;;7.10;79.50;;;;;;5007331;28;20104;-66
2022/12/01 07:24:11;;;;;;;54.33;29.88;;;7.00;79.40;;;;;;5013255;28;20117;-66
2022/12/01 07:26:37;;;;;;;56.35;32.05;;;7.00;79.40;;;;;;5012722;28;20404;-65
2022/12/01 07:29:03;;;;;;;53.38;29.90;;;7.00;79.20;;;;;;4995261;28;20050;-66
2022/12/01 07:31:29;;;;;;;49.00;29.50;;;7.00;79.00;;;;;;5019194;28;20116;-66
2022/12/01 07:33:54;;;;;;;52.08;29.67;;;7.00;79.00;;;;;;4979254;28;20390;-65
2022/12/01 07:36:20;;;;;;;48.85;29.38;;;7.00;79.00;;;;;;4995497;28;20046;-66
2022/12/01 07:38:46;;;;;;;53.00;28.75;;;6.90;78.90;;;;;;5013112;28;20046;-66
2022/12/01 07:41:14;;;;;;;48.47;30.05;;;6.90;78.90;;;;;;4995369;28;20477;-65
2022/12/01 07:43:40;;;;;;;48.90;27.83;;;6.90;78.90;;;;;;5002597;28;20493;-66
2022/12/01 07:46:18;;;;;;;52.67;30.15;;;6.80;78.80;;;;;;5032698;28;20060;-67
2022/12/01 07:48:44;;;;;;;51.70;28.75;;;6.80;78.80;;;;;;5015065;28;20099;-65
2022/12/01 07:51:12;;;;;;;55.30;29.35;;;6.80;78.80;;;;;;5009431;28;20385;-66
2022/12/01 07:53:38;;;;;;;51.10;28.13;;;6.70;78.70;;;;;;4979173;28;20041;-66
2022/12/01 07:56:04;;;;;;;50.90;28.77;;;6.70;78.80;;;;;;4997051;28;20049;-66
2022/12/01 07:58:31;;;;;;;50.78;28.33;;;6.70;78.80;;;;;;5032305;28;20382;-66
2022/12/01 08:00:57;;;;;;;56.92;30.92;;;6.70;78.80;;;;;;5015343;28;20045;-66
2022/12/01 08:03:23;;;;;;;57.65;30.25;;;6.60;78.70;;;;;;5008571;28;20038;-66
2022/12/01 08:05:56;;;;;;;55.47;30.02;;;6.60;78.80;;;;;;5017064;28;20042;-66
2022/12/01 08:08:21;;;;;;;57.83;32.10;;;6.70;78.80;;;;;;4999099;28;20533;-66
2022/12/01 08:10:47;;;;;;;51.38;28.98;;;6.60;78.80;;;;;;5007705;28;20179;-66
2022/12/01 08:13:13;;;;;;;49.90;27.80;;;6.60;78.80;;;;;;5014954;28;20480;-66
2022/12/01 08:15:38;;;;;;;48.83;29.58;;;6.50;78.80;;;;;;4999036;28;20044;-66
2022/12/01 08:18:04;;;;;;;50.65;29.00;;;6.50;78.90;;;;;;4998926;28;20057;-66
2022/12/01 08:20:30;;;;;;;52.67;28.27;;;6.50;78.90;;;;;;4983045;28;20137;-66
2022/12/01 08:23:00;;;;;;;52.80;29.10;;;6.50;79.00;;;;;;4998891;28;20065;-67
2022/12/01 08:25:26;;;;;;;44.75;26.38;;;6.40;79.00;;;;;;4999115;28;20073;-66
2022/12/01 08:27:52;;;;;;;50.42;28.20;;;6.40;79.00;;;;;;4998825;28;20041;-67
2022/12/01 08:30:17;;;;;;;52.60;28.23;;;6.40;79.00;;;;;;5019332;28;20095;-67
2022/12/01 08:32:43;;;;;;;47.85;28.73;;;6.40;79.00;;;;;;4998276;28;20473;-67
2022/12/01 08:35:09;;;;;;;50.47;27.88;;;6.30;78.90;;;;;;5015536;28;20446;-67
2022/12/01 08:37:35;;;;;;;47.13;26.70;;;6.30;78.90;;;;;;4999498;28;20405;-65
2022/12/01 08:40:01;;;;;;;46.67;27.38;;;6.30;78.90;;;;;;4997940;28;20054;-66
2022/12/01 08:42:26;;;;;;;49.33;27.73;;;6.30;78.90;;;;;;4997460;28;20033;-66
2022/12/01 08:44:52;;;;;;;50.35;30.17;;;6.30;78.90;;;;;;4995822;28;20076;-66
2022/12/01 08:47:18;;;;;;;42.15;27.27;;;6.20;78.90;;;;;;4990488;28;20448;-66
2022/12/01 08:49:43;;;;;;;53.47;27.55;;;6.30;79.10;;;;;;4996992;28;20378;-66
2022/12/01 08:52:09;;;;;;;44.13;27.63;;;6.20;79.10;;;;;;4982169;28;20081;-66
2022/12/01 08:54:34;;;;;;;67.57;25.90;;;6.20;79.00;;;;;;5015927;28;20042;-67
2022/12/01 08:57:00;;;;;;;42.20;27.00;;;6.20;79.00;;;;;;5016742;28;20046;-66
2022/12/01 08:59:26;;;;;;;48.00;26.20;;;6.10;79.00;;;;;;5018074;28;20244;-66
2022/12/01 09:01:52;;;;;;;38.83;24.58;;;6.10;79.00;;;;;;5016344;28;20130;-66
2022/12/01 09:04:23;;;;;;;36.78;25.00;;;6.10;78.90;;;;;;5015618;28;20077;-67
2022/12/01 09:06:50;;;;;;;38.92;24.98;;;6.10;78.90;;;;;;4980027;28;20057;-67
2022/12/01 09:09:19;;;;;;;42.60;23.48;;;6.10;78.80;;;;;;4978679;28;20425;-67
2022/12/01 09:11:46;;;;;;;34.97;23.52;;;6.10;78.70;;;;;;5002540;28;20116;-67
2022/12/01 09:14:14;;;;;;;37.35;25.00;;;6.10;78.60;;;;;;4998632;28;20087;-67
2022/12/01 09:16:41;;;;;;;28.98;21.58;;;6.00;78.50;;;;;;4997745;28;20050;-67
2022/12/01 09:19:07;;;;;;;35.95;23.65;;;6.00;78.50;;;;;;4997880;28;20045;-66
2022/12/01 09:21:35;;;;;;;32.22;22.70;;;6.00;78.50;;;;;;5015129;28;20064;-67
2022/12/01 09:24:02;;;;;;;34.70;23.77;;;6.00;78.60;;;;;;5015274;28;20092;-67
2022/12/01 09:26:28;;;;;;;40.70;22.08;;;5.90;78.50;;;;;;4997486;28;20504;-67
2022/12/01 09:29:03;;;;;;;30.27;20.98;;;5.90;78.60;;;;;;5003733;28;20049;-67
2022/12/01 09:31:29;;;;;;;72.90;22.67;;;5.80;78.60;;;;;;4981312;28;20429;-67
2022/12/01 09:33:57;;;;;;;36.35;22.80;;;5.90;78.70;;;;;;4997897;28;20034;-67
2022/12/01 09:36:23;;;;;;;37.17;24.58;;;5.80;78.70;;;;;;4997678;28;20041;-67
2022/12/01 09:38:49;;;;;;;36.47;24.75;;;5.80;79.10;;;;;;4997643;28;20374;-67
2022/12/01 09:41:18;;;;;;;42.50;23.73;;;5.80;79.30;;;;;;4997465;28;20049;-67
2022/12/01 09:44:19;;;;;;;44.90;22.17;;;5.80;79.40;;;;;;5027367;28;20042;-66
2022/12/01 09:46:57;;;;;;;34.38;21.83;;;5.80;79.30;;;;;;4977568;28;20374;-66
2022/12/01 09:49:42;;;;;;;55.58;23.25;;;5.80;79.40;;;;;;4991264;28;20048;-66
2022/12/01 09:52:12;;;;;;;34.78;23.35;;;5.80;79.60;;;;;;4991295;28;20437;-67
2022/12/01 09:54:38;;;;;;;35.63;23.83;;;5.80;79.70;;;;;;5008518;28;20045;-66
2022/12/01 09:57:04;;;;;;;32.45;22.83;;;5.80;79.90;;;;;;4992252;28;20056;-66
2022/12/01 09:59:39;;;;;;;32.67;23.67;;;5.80;80.10;;;;;;4988745;28;20037;-66
2022/12/01 10:02:25;;;;;;;52.15;21.67;;;5.90;80.50;;;;;;4993602;28;20045;-66
2022/12/01 10:04:54;;;;;;;32.05;21.35;;;5.90;80.40;;;;;;5010454;28;20046;-67
2022/12/01 10:07:24;;;;;;;34.45;23.70;;;5.90;80.30;;;;;;4997318;28;20104;-67
2022/12/01 10:09:59;;;;;;;34.95;23.05;;;5.90;80.30;;;;;;4979799;28;20045;-66
2022/12/01 10:12:30;;;;;;;50.40;23.02;;;5.90;80.50;;;;;;5014207;28;20049;-67
2022/12/01 10:15:20;;;;;;;43.60;23.58;;;5.90;80.60;;;;;;4996102;28;20108;-67
2022/12/01 10:18:13;;;;;;;33.60;21.77;;;6.00;80.70;;;;;;4994642;28;20057;-67
2022/12/01 10:20:51;;;;;;;36.45;23.20;;;6.00;80.60;;;;;;4997051;28;20049;-67
2022/12/01 10:23:17;;;;;;;33.42;23.42;;;6.00;80.60;;;;;;5016367;28;20041;-67
2022/12/01 10:25:59;;;;;;;35.78;23.27;;;6.00;80.60;;;;;;5016473;28;20124;-67
2022/12/01 10:28:46;;;;;;;34.97;23.25;;;6.10;80.70;;;;;;5016087;28;20088;-67
2022/12/01 10:31:27;;;;;;;37.08;22.63;;;6.10;80.60;;;;;;5016171;28;20038;-67
2022/12/01 10:34:02;;;;;;;38.20;24.30;;;6.10;80.50;;;;;;5014616;28;20042;-67
2022/12/01 10:36:30;;;;;;;37.92;24.98;;;6.10;80.50;;;;;;4996554;28;20037;-64
2022/12/01 10:38:56;;;;;;;38.03;24.17;;;6.20;80.70;;;;;;4996373;28;20486;-64
2022/12/01 10:41:25;;;;;;;37.33;23.30;;;6.20;80.70;;;;;;5013968;28;20057;-67
2022/12/01 10:43:54;;;;;;;36.40;24.02;;;6.20;80.70;;;;;;5013930;28;20041;-65
2022/12/01 10:46:34;;;;;;;37.80;23.95;;;6.30;80.90;;;;;;4980133;28;20532;-65
2022/12/01 10:49:10;;;;;;;36.78;23.25;;;6.20;81.00;;;;;;5025028;28;20038;-67
2022/12/01 10:51:50;;;;;;;38.55;24.50;;;6.30;81.10;;;;;;5015351;28;20644;-65
2022/12/01 10:54:16;;;;;;;36.20;25.05;;;6.40;81.20;;;;;;5015713;28;20040;-65
2022/12/01 10:56:46;;;;;;;36.42;23.35;;;6.40;81.20;;;;;;5015770;28;20041;-65
2022/12/01 10:59:24;;;;;;;40.63;25.50;;;6.50;81.30;;;;;;5016026;28;20053;-65
2022/12/01 11:01:49;;;;;;;40.25;25.67;;;6.50;81.30;;;;;;5006073;28;20050;-65
2022/12/01 11:04:43;;;;;;;43.75;27.00;;;6.50;81.30;;;;;;4979772;28;20042;-66
2022/12/01 11:07:19;;;;;;;34.75;23.58;;;6.60;81.40;;;;;;4995444;28;20057;-66
2022/12/01 11:09:53;;;;;;;41.83;25.80;;;6.60;81.30;;;;;;4995297;28;20052;-66
2022/12/01 11:12:19;;;;;;;44.92;25.45;;;6.60;81.30;;;;;;4995992;28;20367;-66
2022/12/01 11:14:49;;;;;;;45.70;26.60;;;6.70;81.30;;;;;;5014767;28;20040;-66
2022/12/01 11:17:15;;;;;;;44.83;27.48;;;6.70;81.40;;;;;;5010016;28;20505;-66
2022/12/01 11:19:40;;;;;;;42.25;26.55;;;6.70;81.40;;;;;;4979614;28;20053;-66
2022/12/01 11:22:20;;;;;;;41.80;27.20;;;6.80;81.40;;;;;;4995827;28;20065;-66
2022/12/01 11:24:52;;;;;;;44.83;27.52;;;6.80;81.50;;;;;;4995790;28;20045;-66
2022/12/01 11:27:23;;;;;;;40.17;25.38;;;6.90;81.60;;;;;;4995957;28;20045;-66
2022/12/01 11:30:05;;;;;;;43.42;28.17;;;6.90;81.60;;;;;;5029712;28;20047;-66
2022/12/01 11:32:37;;;;;;;41.30;24.90;;;6.90;81.50;;;;;;5015161;28;20128;-66
2022/12/01 11:35:16;;;;;;;46.22;26.92;;;7.00;81.60;;;;;;5015133;28;20391;-66
2022/12/01 11:37:46;;;;;;;41.22;25.83;;;7.00;81.60;;;;;;5032836;28;20044;-66
2022/12/01 11:40:23;;;;;;;43.17;26.35;;;7.00;81.50;;;;;;5015491;28;20037;-66
2022/12/01 11:42:52;;;;;;;56.92;34.17;;;7.00;81.60;;;;;;5004589;28;20425;-66
2022/12/01 11:45:26;;;;;;;46.40;30.50;;;7.10;81.60;;;;;;4995464;28;20046;-66
2022/12/01 11:48:11;;;;;;;50.83;29.15;;;7.10;81.70;;;;;;4995450;28;20046;-66
2022/12/01 11:50:40;;;;;;;46.22;28.42;;;7.10;81.50;;;;;;4995623;28;20501;-66
2022/12/01 11:53:33;;;;;;;48.38;28.85;;;7.10;81.30;;;;;;4979214;28;20112;-66
2022/12/01 11:56:22;;;;;;;49.90;29.75;;;7.20;81.10;;;;;;4995502;28;20037;-66
2022/12/01 11:58:59;;;;;;;43.97;27.58;;;7.20;81.00;;;;;;4975912;28;20410;-66
2022/12/01 12:01:31;;;;;;;43.38;27.80;;;7.20;81.00;;;;;;4975849;28;20050;-66
2022/12/01 12:04:02;;;;;;;47.95;29.13;;;7.30;81.00;;;;;;4979014;28;20042;-66
2022/12/01 12:07:18;;;;;;;44.88;28.20;;;7.30;81.00;;;;;;5014981;28;20045;-66
2022/12/01 12:10:11;;;;;;;44.33;26.10;;;7.40;80.90;;;;;;4901733;29;20090;-67
2022/12/01 12:13:08;;;;;;;44.67;26.65;;;7.40;81.00;;;;;;4992008;28;20034;-66
2022/12/01 12:16:07;;;;;;;36.40;23.15;;;7.40;80.60;;;;;;4975726;28;20056;-66
2022/12/01 12:18:57;;;;;;;37.65;24.48;;;7.50;80.20;;;;;;4972262;28;20066;-66
2022/12/01 12:21:41;;;;;;;36.40;24.25;;;7.50;80.00;;;;;;4977215;28;20044;-67
2022/12/01 12:24:28;;;;;;;35.28;23.88;;;7.50;79.70;;;;;;5008556;28;20436;-67
2022/12/01 12:27:13;;;;;;;39.80;24.60;;;7.50;79.40;;;;;;4978306;28;20653;-67
2022/12/01 12:30:19;;;;;;;38.47;23.88;;;7.50;79.00;;;;;;5012648;28;20499;-67
2022/12/01 12:32:48;;;;;;;37.22;23.67;;;7.60;78.60;;;;;;5000643;28;20045;-67
2022/12/01 12:35:38;;;;;;;38.13;23.88;;;7.60;78.70;;;;;;5011358;28;20053;-67
2022/12/01 12:38:16;;;;;;;40.70;25.33;;;7.50;78.20;;;;;;4989781;28;20086;-67
2022/12/01 12:40:51;;;;;;;41.03;24.33;;;7.60;78.40;;;;;;4987673;28;20054;-67
2022/12/01 12:43:40;;;;;;;37.97;24.83;;;7.60;78.20;;;;;;4991989;28;20050;-67
2022/12/01 12:46:10;;;;;;;41.05;24.77;;;7.60;77.80;;;;;;4959109;28;20501;-75
2022/12/01 12:48:44;;;;;;;37.05;24.10;;;7.60;78.10;;;;;;4990631;28;20049;-75
2022/12/01 12:51:17;;;;;;;;;;;7.70;78.10;;;;;;5007849;28;20035;-75
2022/12/01 12:54:10;;;;;;;40.78;22.80;;;7.70;78.00;;;;;;4990834;28;19926;-75
2022/12/01 12:56:37;;;;;;;34.38;20.48;;;7.70;78.20;;;;;;5007824;28;20042;-67
2022/12/01 12:59:17;;;;;;;35.10;21.30;;;7.80;78.10;;;;;;4991978;28;20046;-67
2022/12/01 13:02:08;;;;;;;37.90;24.83;;;7.70;77.60;;;;;;4993029;28;20050;-67